Time;durP1;ratioP1;P1;durP2;ratioP2;P2;SDS_P1;SDS_P2;PMS_P1;PMS_P2;Temp;Humidity;BMP_temperature;BMP_pressure;BME280_temperature;BME280_humidity;BME280_pressure;Samples;Min_cycle;Max_cycle;Signal;HPM_P1;HPM_P2
2023/09/22 00:02:36;;;;;;;5.18;4.43;;;;;;;;;;10456442;27;20467;-66
2023/09/22 00:07:34;;;;;;;5.80;4.53;;;;;;;;;;10456832;27;20070;-66
2023/09/22 00:12:34;;;;;;;6.75;4.53;;;;;;;;;;10453747;27;20046;-65
2023/09/22 00:17:34;;;;;;;4.30;3.90;;;;;;;;;;10457106;27;20062;-65
2023/09/22 00:22:32;;;;;;;7.10;3.95;;;;;;;;;;10450949;27;20663;-66
2023/09/22 00:27:30;;;;;;;4.45;4.05;;;;;;;;;;10444277;27;20605;-66
2023/09/22 00:32:30;;;;;;;5.75;3.85;;;;;;;;;;10455954;27;20066;-65
2023/09/22 00:37:29;;;;;;;5.88;3.92;;;;;;;;;;10456461;27;20063;-65
2023/09/22 00:42:28;;;;;;;7.93;3.65;;;;;;;;;;10454839;27;20083;-66
2023/09/22 00:47:26;;;;;;;5.20;3.85;;;;;;;;;;10451298;27;20066;-66
2023/09/22 00:52:27;;;;;;;5.78;3.92;;;;;;;;;;10453996;27;20577;-66
2023/09/22 00:57:25;;;;;;;5.22;3.75;;;;;;;;;;10440736;27;20078;-67
2023/09/22 01:02:25;;;;;;;6.97;4.20;;;;;;;;;;10452004;27;20074;-66
2023/09/22 01:07:24;;;;;;;4.32;3.92;;;;;;;;;;10438558;27;20074;-66
2023/09/22 01:12:24;;;;;;;7.43;3.33;;;;;;;;;;10432844;27;20078;-66
2023/09/22 01:17:23;;;;;;;4.88;4.18;;;;;;;;;;10449851;27;20067;-66
2023/09/22 01:22:22;;;;;;;4.95;4.13;;;;;;;;;;10454096;27;20070;-67
2023/09/22 01:27:21;;;;;;;4.80;3.50;;;;;;;;;;10432894;27;20043;-66
2023/09/22 01:32:19;;;;;;;5.65;3.65;;;;;;;;;;10453126;27;20070;-65
2023/09/22 01:37:18;;;;;;;6.88;3.70;;;;;;;;;;10456694;27;20074;-66
2023/09/22 01:42:17;;;;;;;7.60;3.75;;;;;;;;;;10449635;27;20074;-66
2023/09/22 01:47:16;;;;;;;6.40;4.22;;;;;;;;;;10448087;27;20081;-66
2023/09/22 01:52:14;;;;;;;10.55;4.35;;;;;;;;;;10457200;27;20077;-67
2023/09/22 01:57:13;;;;;;;5.93;3.97;;;;;;;;;;10462412;27;20081;-66
2023/09/22 02:02:12;;;;;;;9.15;4.22;;;;;;;;;;10443196;27;20078;-66
2023/09/22 02:07:11;;;;;;;5.40;3.83;;;;;;;;;;10440519;27;20074;-66
2023/09/22 02:12:09;;;;;;;5.22;4.45;;;;;;;;;;10457507;27;20066;-66
2023/09/22 02:17:07;;;;;;;9.18;3.95;;;;;;;;;;10443405;27;20074;-66
2023/09/22 02:22:07;;;;;;;8.38;4.63;;;;;;;;;;10437851;27;20632;-66
2023/09/22 02:27:06;;;;;;;3.95;3.38;;;;;;;;;;10457593;27;20480;-66
2023/09/22 02:32:04;;;;;;;7.43;3.95;;;;;;;;;;10457993;27;20078;-66
2023/09/22 02:37:04;;;;;;;5.85;3.33;;;;;;;;;;10440063;27;20074;-66
2023/09/22 02:42:04;;;;;;;4.00;3.15;;;;;;;;;;10443414;27;20082;-66
2023/09/22 02:47:03;;;;;;;8.45;4.15;;;;;;;;;;10456386;27;20079;-65
2023/09/22 02:52:02;;;;;;;4.88;3.30;;;;;;;;;;10455637;27;20066;-65
2023/09/22 02:57:01;;;;;;;3.80;3.45;;;;;;;;;;10456367;27;20066;-66
2023/09/22 03:02:00;;;;;;;3.78;3.40;;;;;;;;;;10457022;27;20065;-65
2023/09/22 03:06:59;;;;;;;6.38;3.67;;;;;;;;;;10457420;27;20081;-66
2023/09/22 03:11:57;;;;;;;4.80;3.35;;;;;;;;;;10453276;27;20534;-66
2023/09/22 03:16:57;;;;;;;5.47;3.70;;;;;;;;;;10441741;27;20054;-66
2023/09/22 03:21:57;;;;;;;7.45;3.78;;;;;;;;;;10456500;27;20085;-66
2023/09/22 03:26:55;;;;;;;6.13;3.63;;;;;;;;;;10457544;27;20127;-66
2023/09/22 03:31:54;;;;;;;4.32;3.50;;;;;;;;;;10457739;27;20062;-65
2023/09/22 03:36:52;;;;;;;10.27;3.65;;;;;;;;;;10440497;27;20499;-66
2023/09/22 03:41:54;;;;;;;4.93;3.92;;;;;;;;;;10443953;27;21355;-66
2023/09/22 03:46:52;;;;;;;6.97;4.00;;;;;;;;;;10442415;27;20070;-66
2023/09/22 03:51:50;;;;;;;7.82;4.20;;;;;;;;;;10457251;27;20062;-66
2023/09/22 03:56:49;;;;;;;4.47;3.55;;;;;;;;;;10447596;27;20074;-65
2023/09/22 04:01:48;;;;;;;4.88;3.63;;;;;;;;;;10456051;27;20069;-67
2023/09/22 04:06:47;;;;;;;8.02;3.33;;;;;;;;;;10456150;27;20072;-65
2023/09/22 04:11:45;;;;;;;3.05;2.50;;;;;;;;;;10454872;27;20070;-66
2023/09/22 04:16:43;;;;;;;4.47;3.78;;;;;;;;;;10454011;27;20066;-65
2023/09/22 04:21:44;;;;;;;5.00;3.55;;;;;;;;;;10454391;27;20071;-65
2023/09/22 04:26:43;;;;;;;4.47;3.65;;;;;;;;;;10454994;27;20074;-65
2023/09/22 04:31:42;;;;;;;11.65;4.72;;;;;;;;;;10457512;27;20070;-65
2023/09/22 04:36:41;;;;;;;6.82;4.32;;;;;;;;;;10456465;27;20039;-66
2023/09/22 04:41:41;;;;;;;6.78;4.07;;;;;;;;;;10455545;27;20071;-66
2023/09/22 04:46:39;;;;;;;8.80;4.28;;;;;;;;;;10454728;27;20081;-66
2023/09/22 04:51:39;;;;;;;14.45;4.63;;;;;;;;;;10451723;27;20515;-65
2023/09/22 04:56:37;;;;;;;7.65;4.13;;;;;;;;;;10457386;27;20081;-65
2023/09/22 05:01:37;;;;;;;6.18;3.92;;;;;;;;;;10456749;27;20071;-65
2023/09/22 05:06:36;;;;;;;6.55;3.60;;;;;;;;;;10455220;27;20534;-65
2023/09/22 05:11:34;;;;;;;7.82;3.83;;;;;;;;;;10456187;27;20078;-65
2023/09/22 05:16:33;;;;;;;6.05;3.75;;;;;;;;;;10456731;27;20089;-66
2023/09/22 05:21:33;;;;;;;9.10;4.50;;;;;;;;;;10453743;27;20067;-66
2023/09/22 05:26:31;;;;;;;8.73;5.32;;;;;;;;;;10458011;27;20063;-65
2023/09/22 05:31:29;;;;;;;5.55;5.00;;;;;;;;;;10455153;27;20074;-66
2023/09/22 05:36:29;;;;;;;7.88;5.32;;;;;;;;;;10453944;27;20073;-66
2023/09/22 05:41:29;;;;;;;5.30;4.38;;;;;;;;;;10453784;27;20070;-64
2023/09/22 05:46:31;;;;;;;5.60;4.75;;;;;;;;;;10454668;27;20498;-66
2023/09/22 05:51:32;;;;;;;5.88;4.82;;;;;;;;;;10451733;27;20059;-67
2023/09/22 05:56:31;;;;;;;8.23;4.95;;;;;;;;;;10447772;27;20133;-66
2023/09/22 06:01:30;;;;;;;6.90;4.50;;;;;;;;;;10451971;27;20070;-66
2023/09/22 06:06:28;;;;;;;9.77;5.15;;;;;;;;;;10450326;27;20067;-66
2023/09/22 06:11:27;;;;;;;6.93;4.82;;;;;;;;;;10452474;27;20119;-66
2023/09/22 06:16:26;;;;;;;5.85;5.07;;;;;;;;;;10456280;27;20078;-67
2023/09/22 06:21:25;;;;;;;7.85;4.60;;;;;;;;;;10459758;27;20602;-66
2023/09/22 06:26:23;;;;;;;7.55;4.47;;;;;;;;;;10464517;27;20063;-66
2023/09/22 06:31:22;;;;;;;8.50;4.43;;;;;;;;;;10460377;27;20090;-66
2023/09/22 06:36:22;;;;;;;6.28;4.47;;;;;;;;;;10457981;27;20074;-67
2023/09/22 06:41:21;;;;;;;9.95;5.85;;;;;;;;;;10458663;27;20070;-67
2023/09/22 06:46:20;;;;;;;9.23;5.35;;;;;;;;;;10457222;27;20070;-66
2023/09/22 06:51:18;;;;;;;8.98;5.13;;;;;;;;;;10462221;27;20039;-66
2023/09/22 06:56:18;;;;;;;6.72;4.93;;;;;;;;;;10456953;27;20073;-66
2023/09/22 07:01:17;;;;;;;11.00;5.18;;;;;;;;;;10456306;27;20085;-65
2023/09/22 07:06:16;;;;;;;8.98;5.10;;;;;;;;;;10457218;27;20067;-65
2023/09/22 07:11:15;;;;;;;7.70;4.70;;;;;;;;;;10453442;27;20069;-67
2023/09/22 07:16:15;;;;;;;8.23;4.60;;;;;;;;;;10461377;27;20071;-66
2023/09/22 07:21:13;;;;;;;6.93;5.10;;;;;;;;;;10460288;27;20471;-66
2023/09/22 07:26:12;;;;;;;9.02;4.75;;;;;;;;;;10460428;27;20093;-65
2023/09/22 07:31:12;;;;;;;8.15;4.00;;;;;;;;;;10457905;27;20078;-64
2023/09/22 07:36:12;;;;;;;14.32;5.88;;;;;;;;;;10452924;27;20463;-65
2023/09/22 07:41:11;;;;;;;5.88;5.05;;;;;;;;;;10455923;27;20063;-65
2023/09/22 07:46:09;;;;;;;7.72;5.35;;;;;;;;;;10459957;27;20071;-65
2023/09/22 07:51:08;;;;;;;8.30;5.38;;;;;;;;;;10460705;27;20295;-65
2023/09/22 07:56:12;;;;;;;8.63;5.35;;;;;;;;;;10455068;27;20537;-65
2023/09/22 08:01:12;;;;;;;11.32;5.13;;;;;;;;;;10457850;27;20482;-64
2023/09/22 08:06:11;;;;;;;11.23;6.13;;;;;;;;;;10452318;27;20077;-66
2023/09/22 08:11:11;;;;;;;9.27;4.78;;;;;;;;;;10461321;27;20564;-67
2023/09/22 08:16:10;;;;;;;6.40;4.60;;;;;;;;;;10454243;27;20093;-65
2023/09/22 08:21:08;;;;;;;16.83;5.10;;;;;;;;;;10437123;27;20079;-66
2023/09/22 08:26:07;;;;;;;8.90;4.97;;;;;;;;;;10455338;27;20071;-65
2023/09/22 08:31:07;;;;;;;8.40;5.43;;;;;;;;;;10454846;27;20587;-65
2023/09/22 08:36:06;;;;;;;9.32;4.97;;;;;;;;;;10455042;27;20168;-67
2023/09/22 08:41:04;;;;;;;16.67;5.25;;;;;;;;;;10435331;27;20101;-67
2023/09/22 08:46:02;;;;;;;8.38;5.30;;;;;;;;;;10454032;27;20074;-66
2023/09/22 08:51:03;;;;;;;9.13;4.95;;;;;;;;;;10452406;27;20089;-65
2023/09/22 08:56:04;;;;;;;9.48;5.60;;;;;;;;;;10451596;27;20077;-65
2023/09/22 09:01:02;;;;;;;8.80;5.28;;;;;;;;;;10451559;27;20070;-66
2023/09/22 09:06:10;;;;;;;10.15;5.60;;;;;;;;;;10452961;27;20070;-66
2023/09/22 09:11:10;;;;;;;6.30;4.22;;;;;;;;;;10447961;27;20097;-66
2023/09/22 09:16:10;;;;;;;9.77;5.53;;;;;;;;;;10454159;27;20108;-66
2023/09/22 09:21:11;;;;;;;8.75;4.75;;;;;;;;;;10452455;27;20082;-66
2023/09/22 09:26:09;;;;;;;6.20;4.40;;;;;;;;;;10453415;27;20487;-66
2023/09/22 09:31:10;;;;;;;11.02;4.97;;;;;;;;;;10454022;27;20086;-66
2023/09/22 09:36:16;;;;;;;10.38;4.82;;;;;;;;;;10453991;27;20078;-66
2023/09/22 09:41:15;;;;;;;5.80;4.60;;;;;;;;;;10451899;27;20079;-65
2023/09/22 09:46:15;;;;;;;9.00;5.15;;;;;;;;;;10453774;27;20070;-66
2023/09/22 09:51:19;;;;;;;10.25;4.63;;;;;;;;;;10436902;27;20055;-66
2023/09/22 09:56:17;;;;;;;;;;;;;;;;;;10455112;27;20066;-67
2023/09/22 10:01:19;;;;;;;6.32;4.40;;;;;;;;;;10455573;27;19958;-65
2023/09/22 10:06:19;;;;;;;8.75;4.07;;;;;;;;;;10458676;27;20062;-66
2023/09/22 10:11:17;;;;;;;9.63;4.57;;;;;;;;;;10461463;27;20063;-66
2023/09/22 10:16:28;;;;;;;7.53;4.40;;;;;;;;;;10459907;27;20070;-66
2023/09/22 10:21:33;;;;;;;9.13;3.25;;;;;;;;;;10458631;27;20073;-66
2023/09/22 10:26:31;;;;;;;11.07;3.95;;;;;;;;;;10461070;27;20507;-66
2023/09/22 10:31:31;;;;;;;6.43;4.07;;;;;;;;;;10461634;27;20101;-65
2023/09/22 10:36:47;;;;;;;6.32;3.75;;;;;;;;;;10459342;27;20089;-66
2023/09/22 10:41:59;;;;;;;10.48;3.88;;;;;;;;;;10458743;27;20339;-66
2023/09/22 10:46:59;;;;;;;7.13;4.50;;;;;;;;;;10452225;27;20070;-65
2023/09/22 10:51:58;;;;;;;11.60;5.10;;;;;;;;;;10457634;27;20462;-66
2023/09/22 10:56:56;;;;;;;9.70;4.68;;;;;;;;;;10454023;27;20070;-65
2023/09/22 11:01:56;;;;;;;11.15;3.92;;;;;;;;;;10456019;27;20066;-66
2023/09/22 11:06:55;;;;;;;9.75;4.38;;;;;;;;;;10455293;27;20070;-65
2023/09/22 11:11:54;;;;;;;10.57;3.80;;;;;;;;;;10455110;27;20054;-66
2023/09/22 11:16:52;;;;;;;11.68;4.70;;;;;;;;;;10457210;27;20067;-66
2023/09/22 11:21:51;;;;;;;8.45;3.38;;;;;;;;;;10455306;27;20070;-66
2023/09/22 11:26:50;;;;;;;4.78;3.30;;;;;;;;;;10462522;27;20062;-66
2023/09/22 11:31:49;;;;;;;8.80;4.25;;;;;;;;;;10459342;27;20066;-66
2023/09/22 11:36:50;;;;;;;9.80;3.75;;;;;;;;;;10457413;27;20519;-67
2023/09/22 11:41:49;;;;;;;7.47;3.78;;;;;;;;;;10455342;27;20067;-65
2023/09/22 11:46:49;;;;;;;5.88;3.35;;;;;;;;;;10461204;27;20071;-66
2023/09/22 11:51:50;;;;;;;11.48;3.83;;;;;;;;;;10457380;27;20089;-65
2023/09/22 11:56:50;;;;;;;5.72;3.40;;;;;;;;;;10458634;27;20487;-65
2023/09/22 12:01:50;;;;;;;8.65;3.17;;;;;;;;;;10452370;27;20074;-65
2023/09/22 12:06:48;;;;;;;9.70;3.28;;;;;;;;;;10456319;27;20058;-65
2023/09/22 12:11:48;;;;;;;11.18;3.72;;;;;;;;;;10454044;27;20081;-65
2023/09/22 12:16:47;;;;;;;5.88;3.03;;;;;;;;;;10458318;27;20066;-65
2023/09/22 12:21:47;;;;;;;7.38;3.08;;;;;;;;;;10455753;27;20073;-65
2023/09/22 12:26:46;;;;;;;8.65;3.17;;;;;;;;;;10454997;27;20120;-65
2023/09/22 12:31:45;;;;;;;8.68;3.50;;;;;;;;;;10457478;27;20098;-64
2023/09/22 12:36:43;;;;;;;8.93;3.38;;;;;;;;;;10457018;27;20070;-65
2023/09/22 12:41:44;;;;;;;7.60;3.03;;;;;;;;;;10458345;27;20078;-65
2023/09/22 12:46:42;;;;;;;9.48;3.03;;;;;;;;;;10454675;27;20073;-66
2023/09/22 12:51:41;;;;;;;14.95;3.53;;;;;;;;;;10455290;27;20066;-65
2023/09/22 12:56:40;;;;;;;10.85;3.63;;;;;;;;;;10451888;27;20070;-63
2023/09/22 13:01:39;;;;;;;8.20;3.10;;;;;;;;;;10452302;27;20062;-66
2023/09/22 13:06:40;;;;;;;9.80;3.33;;;;;;;;;;10458220;27;20093;-65
2023/09/22 13:11:38;;;;;;;10.70;3.50;;;;;;;;;;10452629;27;20081;-65
2023/09/22 13:16:37;;;;;;;6.25;3.30;;;;;;;;;;10458185;27;20063;-65
2023/09/22 13:21:37;;;;;;;10.43;2.85;;;;;;;;;;10451358;27;20074;-65
2023/09/22 13:26:35;;;;;;;6.75;3.33;;;;;;;;;;10450958;27;20062;-64
2023/09/22 13:31:33;;;;;;;10.02;3.83;;;;;;;;;;10456298;27;20074;-64
2023/09/22 13:36:32;;;;;;;10.25;3.13;;;;;;;;;;10460495;27;20511;-65
2023/09/22 13:41:31;;;;;;;9.73;3.92;;;;;;;;;;10460939;27;20522;-64
2023/09/22 13:46:29;;;;;;;11.32;3.97;;;;;;;;;;10459895;27;20075;-65
2023/09/22 13:51:30;;;;;;;10.32;4.00;;;;;;;;;;10458612;27;20069;-65
2023/09/22 13:56:28;;;;;;;14.18;3.95;;;;;;;;;;10465119;27;20079;-65
2023/09/22 14:01:28;;;;;;;10.48;3.13;;;;;;;;;;10459174;27;20066;-64
2023/09/22 14:06:27;;;;;;;14.50;3.63;;;;;;;;;;10466908;27;20078;-65
2023/09/22 14:11:25;;;;;;;12.15;3.85;;;;;;;;;;10463859;27;20070;-65
2023/09/22 14:16:25;;;;;;;12.43;3.88;;;;;;;;;;10459820;27;20168;-64
2023/09/22 14:21:26;;;;;;;11.55;3.47;;;;;;;;;;10461615;27;20073;-64
2023/09/22 14:26:24;;;;;;;15.65;4.38;;;;;;;;;;10462988;27;20069;-64
2023/09/22 14:31:23;;;;;;;16.40;4.18;;;;;;;;;;10470463;27;20084;-65
2023/09/22 14:36:22;;;;;;;12.30;3.80;;;;;;;;;;10464807;27;20128;-66
2023/09/22 14:41:22;;;;;;;13.55;4.55;;;;;;;;;;10463849;27;20066;-65
2023/09/22 14:46:21;;;;;;;15.70;4.28;;;;;;;;;;10460223;27;20292;-65
2023/09/22 14:51:20;;;;;;;10.45;4.20;;;;;;;;;;10462619;27;20464;-65
2023/09/22 14:56:18;;;;;;;13.75;4.95;;;;;;;;;;10463751;27;20069;-66
2023/09/22 15:01:18;;;;;;;9.90;4.97;;;;;;;;;;10464883;27;20070;-66
2023/09/22 15:06:19;;;;;;;10.75;4.43;;;;;;;;;;10452136;27;20066;-66
2023/09/22 15:11:17;;;;;;;14.25;4.53;;;;;;;;;;10461024;27;20074;-65
2023/09/22 15:16:16;;;;;;;22.13;5.10;;;;;;;;;;10458101;27;20081;-65
2023/09/22 15:21:16;;;;;;;11.75;4.72;;;;;;;;;;10456774;27;20059;-66
2023/09/22 15:26:14;;;;;;;11.23;3.60;;;;;;;;;;10458245;27;20499;-64
2023/09/22 15:31:12;;;;;;;16.08;4.85;;;;;;;;;;10457144;27;20085;-64
2023/09/22 15:36:11;;;;;;;13.73;4.18;;;;;;;;;;10451573;27;20055;-65
2023/09/22 15:41:11;;;;;;;9.52;3.50;;;;;;;;;;10452410;27;20077;-65
2023/09/22 15:46:09;;;;;;;12.70;4.45;;;;;;;;;;10457510;27;20476;-64
2023/09/22 15:51:08;;;;;;;13.02;4.45;;;;;;;;;;10457733;27;20070;-64
2023/09/22 15:56:06;;;;;;;9.85;4.60;;;;;;;;;;10459634;27;20478;-65
2023/09/22 16:01:06;;;;;;;21.20;5.70;;;;;;;;;;10454695;27;20066;-65
2023/09/22 16:06:06;;;;;;;13.38;4.70;;;;;;;;;;10455947;27;20103;-65
2023/09/22 16:11:05;;;;;;;13.43;5.28;;;;;;;;;;10450888;27;20728;-64
2023/09/22 16:16:09;;;;;;;12.15;5.55;;;;;;;;;;10457305;27;20063;-64
2023/09/22 16:21:08;;;;;;;17.02;8.02;;;;;;;;;;10449581;27;20066;-65
2023/09/22 16:26:07;;;;;;;18.88;8.38;;;;;;;;;;10448865;27;20066;-66
2023/09/22 16:31:07;;;;;;;12.00;7.03;;;;;;;;;;10453290;27;20071;-65
2023/09/22 16:36:06;;;;;;;10.60;5.75;;;;;;;;;;10452616;27;20347;-65
2023/09/22 16:41:08;;;;;;;11.63;5.90;;;;;;;;;;10452774;27;20070;-66
2023/09/22 16:46:09;;;;;;;12.77;5.72;;;;;;;;;;10455281;27;20073;-66
2023/09/22 16:51:07;;;;;;;10.45;4.90;;;;;;;;;;10452694;27;20075;-65
2023/09/22 16:56:06;;;;;;;11.45;5.55;;;;;;;;;;10449505;27;20105;-65
2023/09/22 17:01:05;;;;;;;13.20;5.47;;;;;;;;;;10446653;27;20093;-66
2023/09/22 17:06:04;;;;;;;17.73;4.85;;;;;;;;;;10450942;27;20697;-67
2023/09/22 17:11:04;;;;;;;14.20;4.60;;;;;;;;;;10449458;27;20090;-65
2023/09/22 17:16:04;;;;;;;15.32;4.22;;;;;;;;;;10451319;27;20081;-66
2023/09/22 17:21:07;;;;;;;21.02;4.72;;;;;;;;;;10452919;27;20082;-66
2023/09/22 17:26:25;;;;;;;16.33;4.95;;;;;;;;;;10450692;27;20074;-66
2023/09/22 17:31:24;;;;;;;13.10;6.68;;;;;;;;;;10454440;27;20089;-66
2023/09/22 17:36:24;;;;;;;14.48;4.65;;;;;;;;;;10450093;27;20086;-66
2023/09/22 17:41:23;;;;;;;21.65;4.43;;;;;;;;;;10455028;27;20077;-66
2023/09/22 17:46:24;;;;;;;12.10;3.58;;;;;;;;;;10450545;27;20074;-65
2023/09/22 17:51:22;;;;;;;10.93;4.07;;;;;;;;;;10452213;27;20058;-65
2023/09/22 17:56:22;;;;;;;12.20;4.35;;;;;;;;;;10452986;27;20480;-65
2023/09/22 18:01:20;;;;;;;15.73;3.70;;;;;;;;;;10449020;27;20078;-65
2023/09/22 18:06:18;;;;;;;16.38;4.15;;;;;;;;;;10454128;27;20073;-65
2023/09/22 18:11:17;;;;;;;15.95;5.28;;;;;;;;;;10450984;27;20152;-65
2023/09/22 18:16:17;;;;;;;15.38;4.63;;;;;;;;;;10453070;27;20082;-67
2023/09/22 18:21:15;;;;;;;12.30;4.03;;;;;;;;;;10460253;27;20085;-65
2023/09/22 18:26:13;;;;;;;13.30;4.40;;;;;;;;;;10461206;27;20622;-67
2023/09/22 18:31:13;;;;;;;15.27;5.15;;;;;;;;;;10459670;27;20468;-67
2023/09/22 18:36:13;;;;;;;13.95;5.15;;;;;;;;;;10460403;27;20067;-67
2023/09/22 18:41:11;;;;;;;13.48;4.38;;;;;;;;;;10459023;27;20067;-65
2023/09/22 18:46:13;;;;;;;14.38;6.03;;;;;;;;;;10459776;27;20573;-66
2023/09/22 18:51:13;;;;;;;17.77;5.15;;;;;;;;;;10458233;27;20070;-67
2023/09/22 18:56:11;;;;;;;13.95;5.40;;;;;;;;;;10460423;27;20038;-67
2023/09/22 19:01:09;;;;;;;15.43;6.88;;;;;;;;;;10458893;27;20083;-65
2023/09/22 19:06:10;;;;;;;16.92;6.38;;;;;;;;;;10453311;27;20078;-66
2023/09/22 19:11:13;;;;;;;15.68;3.83;;;;;;;;;;10459264;27;20071;-65
2023/09/22 19:16:12;;;;;;;19.15;5.28;;;;;;;;;;10455570;27;20073;-66
2023/09/22 19:21:11;;;;;;;13.20;4.00;;;;;;;;;;10457032;27;20081;-65
2023/09/22 19:26:11;;;;;;;13.20;4.35;;;;;;;;;;10457228;27;20066;-65
2023/09/22 19:31:10;;;;;;;19.45;4.03;;;;;;;;;;10453165;27;20078;-65
2023/09/22 19:36:08;;;;;;;18.70;4.43;;;;;;;;;;10459162;27;20068;-65
2023/09/22 19:41:09;;;;;;;9.05;4.38;;;;;;;;;;10458409;27;20078;-64
2023/09/22 19:46:07;;;;;;;10.00;4.45;;;;;;;;;;10440586;27;20499;-66
2023/09/22 19:51:11;;;;;;;10.95;3.92;;;;;;;;;;10452605;27;20102;-65
2023/09/22 19:56:09;;;;;;;15.90;4.57;;;;;;;;;;10455851;27;20082;-65
2023/09/22 20:01:08;;;;;;;10.27;3.97;;;;;;;;;;10456591;27;20081;-65
2023/09/22 20:06:07;;;;;;;14.45;4.43;;;;;;;;;;10454914;27;20067;-66
2023/09/22 20:11:06;;;;;;;17.20;4.45;;;;;;;;;;10455907;27;20515;-66
2023/09/22 20:16:05;;;;;;;11.10;4.05;;;;;;;;;;10456721;27;20063;-63
2023/09/22 20:21:04;;;;;;;14.63;4.97;;;;;;;;;;10456385;27;20085;-66
2023/09/22 20:26:05;;;;;;;15.68;5.72;;;;;;;;;;10454188;27;20082;-65
2023/09/22 20:31:05;;;;;;;14.23;3.60;;;;;;;;;;10448095;27;20082;-64
2023/09/22 20:36:04;;;;;;;11.77;4.70;;;;;;;;;;10451865;27;20063;-66
2023/09/22 20:41:04;;;;;;;13.07;4.10;;;;;;;;;;10454306;27;20099;-64
2023/09/22 20:46:07;;;;;;;13.13;4.50;;;;;;;;;;10451983;27;20070;-65
2023/09/22 20:51:08;;;;;;;15.55;4.45;;;;;;;;;;10451716;27;20078;-65
2023/09/22 20:56:11;;;;;;;18.90;4.70;;;;;;;;;;10456201;27;20071;-65
2023/09/22 21:01:12;;;;;;;7.83;4.47;;;;;;;;;;10456816;27;20111;-65
2023/09/22 21:06:11;;;;;;;10.45;4.20;;;;;;;;;;10448712;27;20454;-65
2023/09/22 21:11:09;;;;;;;10.55;3.75;;;;;;;;;;10455072;27;20071;-64
2023/09/22 21:16:10;;;;;;;12.52;3.78;;;;;;;;;;10455640;27;20070;-64
2023/09/22 21:21:08;;;;;;;15.82;3.92;;;;;;;;;;10450151;27;20059;-64
2023/09/22 21:26:07;;;;;;;13.52;4.75;;;;;;;;;;10455464;27;20067;-64
2023/09/22 21:31:06;;;;;;;7.40;4.28;;;;;;;;;;10452632;27;20082;-64
2023/09/22 21:36:06;;;;;;;9.40;4.88;;;;;;;;;;10452296;27;20098;-65
2023/09/22 21:41:05;;;;;;;10.02;3.95;;;;;;;;;;10451475;27;20102;-65
2023/09/22 21:46:04;;;;;;;11.40;3.90;;;;;;;;;;10452005;27;20475;-65
2023/09/22 21:51:06;;;;;;;9.82;3.42;;;;;;;;;;10452875;27;20768;-65
2023/09/22 21:56:05;;;;;;;16.75;4.72;;;;;;;;;;10460836;27;20144;-65
2023/09/22 22:01:04;;;;;;;12.68;4.15;;;;;;;;;;10459321;27;20096;-65
2023/09/22 22:06:06;;;;;;;9.93;3.72;;;;;;;;;;10459567;27;20651;-65
2023/09/22 22:11:06;;;;;;;10.50;3.97;;;;;;;;;;10460856;27;20616;-65
2023/09/22 22:16:04;;;;;;;11.57;4.25;;;;;;;;;;10458041;27;20113;-64
2023/09/22 22:21:05;;;;;;;7.63;4.30;;;;;;;;;;10458883;27;20086;-65
2023/09/22 22:26:07;;;;;;;12.98;4.22;;;;;;;;;;10461346;27;20063;-65
2023/09/22 22:31:07;;;;;;;12.45;4.28;;;;;;;;;;10463180;27;20087;-64
2023/09/22 22:36:06;;;;;;;12.00;4.25;;;;;;;;;;10464361;27;20460;-64
2023/09/22 22:41:05;;;;;;;10.23;4.72;;;;;;;;;;10461415;27;20601;-65
2023/09/22 22:46:04;;;;;;;10.73;4.20;;;;;;;;;;10460360;27;20074;-65
2023/09/22 22:51:04;;;;;;;11.75;3.63;;;;;;;;;;10457836;27;20097;-65
2023/09/22 22:56:02;;;;;;;8.98;4.07;;;;;;;;;;10461382;27;20766;-65
2023/09/22 23:01:01;;;;;;;10.05;4.68;;;;;;;;;;10458639;27;20082;-64
2023/09/22 23:06:02;;;;;;;7.78;4.03;;;;;;;;;;10458985;27;20078;-64
2023/09/22 23:11:05;;;;;;;8.60;4.38;;;;;;;;;;10457932;27;20079;-64
2023/09/22 23:16:05;;;;;;;6.43;3.47;;;;;;;;;;10457852;27;20074;-64
2023/09/22 23:21:05;;;;;;;5.80;3.67;;;;;;;;;;10457337;27;20085;-64
2023/09/22 23:26:06;;;;;;;7.05;3.60;;;;;;;;;;10455804;27;20073;-65
2023/09/22 23:31:04;;;;;;;9.35;3.85;;;;;;;;;;10458165;27;20075;-66
2023/09/22 23:36:04;;;;;;;7.45;4.15;;;;;;;;;;10457345;27;20075;-66
2023/09/22 23:41:06;;;;;;;7.95;3.85;;;;;;;;;;10457673;27;20503;-66
2023/09/22 23:46:08;;;;;;;13.93;4.47;;;;;;;;;;10454298;27;20089;-65
2023/09/22 23:51:07;;;;;;;7.18;4.38;;;;;;;;;;10458114;27;20087;-66
2023/09/22 23:56:06;;;;;;;7.00;3.85;;;;;;;;;;10458607;27;20082;-66
